logo
Rechercher aéroport 
image banner adimage banner adimage banner ad
image banner ad

YNDS - Natal Downs Airport

Situé à Pentland, Australia

ICAO - YNDS, IATA -

Données fournies par Airmate  

Information générale

Coordonnées: S21°5'28" E146°9'25"
Élévation : 758 feet MSL.
Variation magnétique : 8° East
Voir autres Aéroports à Queensland

Données opérationnelles

Special qualification required
Heure actuelle UTC:
Heure actuelle locale:
Météo à : - ( 0 km )
METAR: YSSY 231715Z AUTO 17020KT 6000 -SHRA OVC017 20/19 Q1012 RESHRA
Voir NOTAMs / SUP AIP / TFR affectant cet aéroport [VIEW]
Fréquences de communication: [VIEW]

Pistes:

Identifiant RWYQFULongueur (ft)Largeur (ft)SurfaceLDA (ft)
0999°346964DIRT
27279°346964DIRT
0663°340740DIRT
24243°340740DIRT

Coordonnées de l'aéroport

Adresse: Pentland Australia

Vue satellite de YNDS